Airfield :
LOGIN :

Register | Disclaimer

   EN    FR    IT 

 










Legend :    VFR   Marginal VFR   IFR   Intensive IFR   Very Intensive IFR
Visi :
Ceiling :
>= 8 km
>= 3000ft
5 to 8 km
1000 to 3000 ft
1500m to 5 km
500 to 1000 ft
800 to 1500m
200 to 500 ft
< 800m
< 200 ft
Symbols :   Thunderstorms  Fog  Heavy snow  Heavy precipitations  Wind > 20 kt
SIGMETs :     Misc.  Thunderstorms  Icing  Turbulence  Mountain Waves  Volcanic Ashes






- Airport Elevation : 25 ft
- IATA code : QCY


EGXC - RAF Coningsby

CURRENT METAR :
  • 240750Z 13003KT 2500 BR BKN120 M03/M03 Q0997 RMK YLO1

EXPIRED METARs :
  • 240650Z 11002KT 2500 BR BKN120 M03/M03 Q0997 RMK YLO1
  • 240550Z 13001KT 2000 MIFG BKN120 BKN200 M04/M05 Q0997 RMK YLO2

TAF TAF EGXC
Valid from the 24 at 09:00 until the 25 at 03:00 UTC


240719Z 2409/2503 10004KT 6000 BR FEW040
TEMPO 2409/2411 3000 MIFG
PROB40 2409/2411 0200 FZFG VV///
BECMG 2411/2414 9999 NSW
BECMG 2418/2421 6000 BR
TEMPO 2421/2503 3000 MIFG
PROB30 2501/2503 0200 FZFG VV///



MET'MAP, your aeronautical weather chart ! - Copyright ORBIFLY December 2007 - Disclaimer

ORBIFLY MET'MAP TEAM :

Programming & Development : Alexandra Zaïnal
Concept & original design : Baudouin d'Aumeries
Assistance for programming : Marc-Olivier Méhu
Technical & hardware support : Manuel Goepfert

Contact : metmap@orbifly.com




SOURCES & CREDITS :

   NOAA